Nearby METAR Reports

 

KC09 - Morris-Washburn, Illinois, USA
Distance from station: NW 9mi, 14km
Updated: Thu, 20-Jul-2017 7:35am CDT
Thunderstorm rain, Overcast
Thunderstorm rain, Overcast
 Wind from NW
Wind: NW 3 mph , 6 km/h
Temperature: 70°F , 21°C
Dew Point: 68°F , 20°C
Humidity: 94%
Barometer: 30.09 inHg , 1019 hPa
Summary: Thunderstorm Rain
Clouds: Overcast
Visibility: 7 miles , 11 km
Cloud details: Partly cloudy 5500 ft
Partly cloudy 6500 ft
Overcast 11000 ft
2017/07/20 12:35 KC09 201235Z AUTO 31003KT 7SM TSRA SCT055 SCT065 OVC110 21/20 A3009 RMK AO2 LTG DSNT ALQS P0001 T02100201
KJOT - Joliet, Illinois, USA
Distance from station: NNE 13mi, 22km
Updated: Thu, 20-Jul-2017 7:35am CDT
Nearby thunderstorm, Rain, Overcast
Nearby thunderstorm, Rain, Overcast
 Wind from ESE
Wind: ESE 5 mph , 7 km/h
Temperature: 72°F , 22°C
Dew Point: 70°F , 21°C
Humidity: 94%
Barometer: 30.06 inHg , 1017.9 hPa
Summary: Nearby thunderstorm, Rain
Clouds: Overcast
Visibility: 10 miles , 16 km
Cloud details: Partly cloudy 5000 ft
Partly cloudy 7000 ft
Overcast 9500 ft
2017/07/20 12:35 KJOT 201235Z AUTO 11004KT 10SM VCTSRA SCT050 SCT070 OVC095 22/21 A3006 RMK AO2 LTG DSNT ALQS P0003 T02190212
 
KLOT - Romeoville/Chi, Illinois, USA
Distance from station: NNE 21mi, 33km
Updated: Thu, 20-Jul-2017 7:35am CDT
Nearby thunderstorm, Rain, Overcast
Nearby thunderstorm, Rain, Overcast
 Wind from E
Wind: E 8 mph , 13 km/h
Temperature: 70°F , 21°C
Dew Point: 66°F , 19°C
Humidity: 88%
Barometer: 30.07 inHg , 1018.3 hPa
Summary: Nearby thunderstorm, Rain
Clouds: Overcast
Visibility: 7 miles , 11 km
Cloud details: Partly cloudy 5500 ft
Partly cloudy 7500 ft
Overcast 10000 ft
2017/07/20 12:35 KLOT 201235Z AUTO 08007KT 7SM VCTSRA SCT055 SCT075 OVC100 21/19 A3007 RMK AO2 LTG DSNT ALQS P0001 T02060192
KIKK - Kankakee, Illinois, USA
Distance from station: SE 30mi, 48km
Updated: Thu, 20-Jul-2017 7:35am CDT
Nearby thunderstorm, Rain, Mostly cloudy
Nearby thunderstorm, Rain, Mostly cloudy
 Wind from calm
Wind: Calm
Temperature: 70°F , 21°C
Dew Point: 70°F , 21°C
Humidity: 100%
Barometer: 30.08 inHg , 1018.6 hPa
Summary: Nearby thunderstorm, Rain
Clouds: Mostly cloudy
Visibility: 10 miles , 16 km
Cloud details: Partly cloudy 6000 ft
Partly cloudy 7000 ft
Mostly cloudy 12000 ft
2017/07/20 12:35 KIKK 201235Z AUTO 00000KT 10SM VCTSRA SCT060 SCT070 BKN120 21/21 A3008 RMK AO2 LTG DSNT NW THRU NE P0001 T02110207
 
KARR - Chicago/Aurora, Illinois, USA
Distance from station: NNW 31mi, 50km
Updated: Thu, 20-Jul-2017 7:38am CDT
Thunderstorm rain, Mist, Overcast
Thunderstorm rain, Mist, Overcast
 Wind from varies
Wind: varies 6 mph , 9 km/h
Temperature: 70°F , 21°C
Dew Point: 70°F , 21°C
Humidity: 100%
Barometer: 30.05 inHg , 1017.6 hPa
Summary: Thunderstorm rain, Mist
Clouds: Overcast
Visibility: 3 miles , 5 km
Cloud details: Few Clouds 700 ft
Mostly cloudy 4300 ft
Overcast 11000 ft
2017/07/20 12:38 KARR 201238Z VRB05KT 3SM TSRA BR FEW007 BKN043 OVC110 21/21 A3005 RMK AO2 LTG DSNT ALQDS TSB02 P0047 T02110206
KPNT - Pontiac, Illinois, USA
Distance from station: SSW 34mi, 54km
Updated: Thu, 20-Jul-2017 7:35am CDT
Light rain, Overcast
Light rain, Overcast
 Wind from ENE
Wind: ENE 3 mph , 6 km/h
Temperature: 72°F , 22°C
Dew Point: 72°F , 22°C
Humidity: 100%
Barometer: 30.07 inHg , 1018.3 hPa
Summary: Light rain
Clouds: Overcast
Visibility: 10 miles , 16 km
Cloud details: Overcast 11000 ft
2017/07/20 12:35 KPNT 201235Z AUTO 07003KT 10SM -RA OVC110 22/22 A3007 RMK AO2 LTG DSNT NW THRU NE T02210217
 
KDPA - Chicago/Dupage, Illinois, USA
Distance from station: N 40mi, 64km
Updated: Thu, 20-Jul-2017 7:35am CDT
Heavy thunderstorm, Rain, Mist, Overcast
Heavy thunderstorm, Rain, Mist, Overcast
 Wind from NE
Wind: NE 10 mph , 17 km/h
Temperature: 68°F , 20°C
Dew Point: 68°F , 20°C
Humidity: 100%
Barometer: 30.07 inHg , 1018.3 hPa
Summary: Heavy thunderstorm, Rain, Mist
Clouds: Overcast
Visibility: 1 mile , 2 km
Cloud details: Few Clouds 900 ft
Mostly cloudy 3000 ft
Overcast 4900 ft
2017/07/20 12:35 KDPA 201235Z 05009KT 1SM +TSRA BR FEW009 BKN030 OVC049 20/20 A3007 RMK AO2 LTG DSNT ALQDS TSB23 P0038 T02000200 RVRNO
KIGQ - Chicago/Lansing, Illinois, USA
Distance from station: ENE 42mi, 67km
Updated: Thu, 20-Jul-2017 7:35am CDT

 Wind from calm
Wind: Calm
Visibility: 5 miles , 8 km
2017/07/20 12:35 KIGQ 201235Z AUTO 00000KT 5SM +VCTSRA SCT009 SCT035 OVC055 21/19 A3009 RMK AO2 LTG DSNT ALQS P0006 T02070190
 
KMDW - Chicago, Illinois, USA
Distance from station: NE 42mi, 67km
Updated: Thu, 20-Jul-2017 7:24am CDT
Thunderstorm rain, Mist, Overcast
Thunderstorm rain, Mist, Overcast
 Wind from SE
Wind: SE 7 mph , 11 km/h
Temperature: 72°F , 22°C
Dew Point: 70°F , 21°C
Humidity: 94%
Barometer: 30.06 inHg , 1017.9 hPa
Summary: Thunderstorm rain, Mist
Clouds: Overcast
Visibility: 3 miles , 5 km
Cloud details: Few Clouds 2000 ft
Mostly cloudy 3900 ft
Overcast 8500 ft
2017/07/20 12:24 KMDW 201224Z 14006KT 3SM TSRA BR FEW020 BKN039CB OVC085 22/21 A3006 RMK AO2 LTG DSNT ALQDS FRQ LTGICCCCG OHD TS OHD MOV SE P0020 T02170211
KVYS - Peru, Illinois, USA
Distance from station: W 44mi, 71km
Updated: Thu, 20-Jul-2017 7:35am CDT
Heavy thunderstorm, Rain, Overcast
Heavy thunderstorm, Rain, Overcast
 Wind from NE
Wind: NE 21 mph , 33 km/h, Gust: 26 mph , 43 km/h
Temperature: 70°F , 21°C
Dew Point: 68°F , 20°C
Humidity: 94%
Barometer: 30.13 inHg , 1020.3 hPa
Summary: Heavy thunderstorm, Rain
Clouds: Overcast
Visibility: 7 miles , 11 km
Cloud details: Partly cloudy 1000 ft
Mostly cloudy 1900 ft
Overcast 4600 ft
2017/07/20 12:35 KVYS 201235Z AUTO 04018G23KT 7SM +TSRA SCT010 BKN019 OVC046 21/20 A3013 RMK AO2 LTG DSNT ALQS P0039 T02070198
 
KDKB - De Kalb, Illinois, USA
Distance from station: NNW 46mi, 74km
Updated: Thu, 20-Jul-2017 7:35am CDT

 Wind from ESE
Wind: ESE 9 mph , 15 km/h
Visibility: 10 miles , 16 km
2017/07/20 12:35 KDKB 201235Z AUTO 12008KT 10SM -VCTSRA BKN004 BKN011 OVC017 20/20 A3007 RMK AO2 LTG DSNT ALQS P0006 T01980195
KORD - Chicago O'hare, Illinois, USA
Distance from station: NNE 48mi, 78km
Updated: Thu, 20-Jul-2017 7:42am CDT
Heavy thunderstorm, Rain, Mist, Overcast
Heavy thunderstorm, Rain, Mist, Overcast
 Wind from N
Wind: N 13 mph , 20 km/h, Gust: 32 mph , 52 km/h
Temperature: 70°F , 21°C
Dew Point: 66°F , 19°C
Humidity: 88%
Barometer: 30.13 inHg , 1020.3 hPa
Summary: Heavy thunderstorm, Rain, Mist
Clouds: Overcast
Visibility: 3/4 mile , 5 km
Cloud details: Mostly cloudy 800 ft
Overcast 2700 ft
2017/07/20 12:42 KORD 201242Z 01011G28KT 3/4SM R10L/2800VP6000FT +TSRA BR BKN008 OVC027CB 21/19 A3013 RMK AO2 PK WND 33028/1237 LTG DSNT ALQDS PRESRR OCNL LTGICCG OHD TS OHD MOV SE P0034 T02060194
 
KGYY - Gary Regional, Indiana, USA
Distance from station: ENE 49mi, 80km
Updated: Thu, 20-Jul-2017 7:28am CDT
Thunderstorm rain, Overcast
Thunderstorm rain, Overcast
 Wind from calm
Wind: Calm
Temperature: 72°F , 22°C
Dew Point: 70°F , 21°C
Humidity: 94%
Barometer: 30.09 inHg , 1019 hPa
Summary: Thunderstorm Rain
Clouds: Overcast
Visibility: 3 miles , 5 km
Cloud details: Partly cloudy 2900 ft
Mostly cloudy 3600 ft
Overcast 5600 ft
2017/07/20 12:28 KGYY 201228Z 00000KT 3SM TSRA SCT029 BKN036 OVC0560 22/21 A3009 RMK OCCNKL LTG CCCG TS OHD TSB28